sensor_id;sensor_type;location;lat;lon;timestamp;pressure;altitude;pressure_sealevel;temperature;humidity
61757;BME280;57225;61.460;24.060;2023-07-08T00:00:09;100109.09;;;13.66;100.00
61757;BME280;57225;61.460;24.060;2023-07-08T00:02:54;100115.44;;;13.71;100.00
61757;BME280;57225;61.460;24.060;2023-07-08T00:05:38;100106.28;;;13.66;100.00
61757;BME280;57225;61.460;24.060;2023-07-08T00:08:23;100096.38;;;13.62;100.00
61757;BME280;57225;61.460;24.060;2023-07-08T00:11:10;100109.16;;;13.63;100.00
61757;BME280;57225;61.460;24.060;2023-07-08T00:13:55;100097.69;;;13.54;100.00
61757;BME280;57225;61.460;24.060;2023-07-08T00:16:39;100104.38;;;13.60;100.00
61757;BME280;57225;61.460;24.060;2023-07-08T00:19:24;100103.72;;;13.52;100.00
61757;BME280;57225;61.460;24.060;2023-07-08T00:22:11;100121.19;;;13.60;100.00
61757;BME280;57225;61.460;24.060;2023-07-08T00:28:13;100112.00;;;13.59;100.00
61757;BME280;57225;61.460;24.060;2023-07-08T00:30:58;100113.97;;;13.62;100.00
61757;BME280;57225;61.460;24.060;2023-07-08T00:33:43;100100.22;;;13.45;100.00
61757;BME280;57225;61.460;24.060;2023-07-08T00:36:27;100119.94;;;13.64;100.00
61757;BME280;57225;61.460;24.060;2023-07-08T00:39:15;100127.44;;;13.71;100.00
61757;BME280;57225;61.460;24.060;2023-07-08T00:42:10;100123.28;;;13.79;100.00
61757;BME280;57225;61.460;24.060;2023-07-08T00:44:57;100116.84;;;13.82;100.00
61757;BME280;57225;61.460;24.060;2023-07-08T00:47:42;100110.03;;;13.83;100.00
61757;BME280;57225;61.460;24.060;2023-07-08T00:50:27;100124.56;;;13.98;100.00
61757;BME280;57225;61.460;24.060;2023-07-08T00:53:25;100117.34;;;14.00;100.00
61757;BME280;57225;61.460;24.060;2023-07-08T00:59:07;100113.25;;;14.05;100.00
61757;BME280;57225;61.460;24.060;2023-07-08T01:01:54;100120.44;;;14.06;100.00
61757;BME280;57225;61.460;24.060;2023-07-08T01:04:49;100113.53;;;14.10;100.00
61757;BME280;57225;61.460;24.060;2023-07-08T01:07:34;100111.53;;;14.11;100.00
61757;BME280;57225;61.460;24.060;2023-07-08T01:10:27;100109.91;;;14.14;100.00
61757;BME280;57225;61.460;24.060;2023-07-08T01:13:14;100099.53;;;14.10;100.00
61757;BME280;57225;61.460;24.060;2023-07-08T01:16:01;100094.66;;;14.15;100.00
61757;BME280;57225;61.460;24.060;2023-07-08T01:18:45;100101.06;;;14.15;100.00
61757;BME280;57225;61.460;24.060;2023-07-08T01:24:27;100105.81;;;14.18;100.00
61757;BME280;57225;61.460;24.060;2023-07-08T01:27:15;100095.47;;;14.15;100.00
61757;BME280;57225;61.460;24.060;2023-07-08T01:30:01;100105.00;;;14.18;100.00
61757;BME280;57225;61.460;24.060;2023-07-08T01:32:49;100098.69;;;14.14;100.00
61757;BME280;57225;61.460;24.060;2023-07-08T01:35:34;100100.94;;;14.22;100.00
61757;BME280;57225;61.460;24.060;2023-07-08T01:38:24;100110.63;;;14.18;100.00
61757;BME280;57225;61.460;24.060;2023-07-08T01:41:15;100103.81;;;14.19;100.00
61757;BME280;57225;61.460;24.060;2023-07-08T01:44:00;100109.56;;;14.31;100.00
61757;BME280;57225;61.460;24.060;2023-07-08T01:46:44;100089.78;;;14.19;100.00
61757;BME280;57225;61.460;24.060;2023-07-08T01:49:29;100105.94;;;14.34;100.00
61757;BME280;57225;61.460;24.060;2023-07-08T01:52:16;100105.47;;;14.36;100.00
61757;BME280;57225;61.460;24.060;2023-07-08T01:55:02;100102.31;;;14.34;100.00
61757;BME280;57225;61.460;24.060;2023-07-08T01:57:46;100114.28;;;14.38;100.00
61757;BME280;57225;61.460;24.060;2023-07-08T02:00:30;100106.25;;;14.40;100.00
61757;BME280;57225;61.460;24.060;2023-07-08T02:03:15;100109.41;;;14.42;100.00
61757;BME280;57225;61.460;24.060;2023-07-08T02:06:00;100111.06;;;14.39;100.00
61757;BME280;57225;61.460;24.060;2023-07-08T02:08:44;100109.41;;;14.42;100.00
61757;BME280;57225;61.460;24.060;2023-07-08T02:11:28;100111.09;;;14.36;100.00
61757;BME280;57225;61.460;24.060;2023-07-08T02:14:13;100115.00;;;14.42;100.00
61757;BME280;57225;61.460;24.060;2023-07-08T02:16:57;100115.59;;;14.30;100.00
61757;BME280;57225;61.460;24.060;2023-07-08T02:19:42;100119.19;;;14.30;100.00
61757;BME280;57225;61.460;24.060;2023-07-08T02:22:27;100125.38;;;14.45;100.00
61757;BME280;57225;61.460;24.060;2023-07-08T02:25:21;100121.41;;;14.42;100.00
61757;BME280;57225;61.460;24.060;2023-07-08T02:28:05;100120.06;;;14.51;100.00
61757;BME280;57225;61.460;24.060;2023-07-08T02:30:50;100120.06;;;14.51;100.00
61757;BME280;57225;61.460;24.060;2023-07-08T02:33:34;100125.13;;;14.59;100.00
61757;BME280;57225;61.460;24.060;2023-07-08T02:36:19;100115.75;;;14.46;100.00
61757;BME280;57225;61.460;24.060;2023-07-08T02:39:04;100123.22;;;14.53;100.00
61757;BME280;57225;61.460;24.060;2023-07-08T02:41:49;100118.47;;;14.49;100.00
61757;BME280;57225;61.460;24.060;2023-07-08T02:44:33;100127.47;;;14.61;100.00
61757;BME280;57225;61.460;24.060;2023-07-08T02:47:18;100129.19;;;14.55;100.00
61757;BME280;57225;61.460;24.060;2023-07-08T02:50:02;100122.72;;;14.58;100.00
61757;BME280;57225;61.460;24.060;2023-07-08T02:52:48;100125.69;;;14.70;100.00
61757;BME280;57225;61.460;24.060;2023-07-08T02:55:33;100128.88;;;14.72;100.00
61757;BME280;57225;61.460;24.060;2023-07-08T02:58:17;100126.91;;;14.69;100.00
61757;BME280;57225;61.460;24.060;2023-07-08T03:01:02;100114.84;;;14.72;100.00
61757;BME280;57225;61.460;24.060;2023-07-08T03:03:47;100118.78;;;14.75;100.00
61757;BME280;57225;61.460;24.060;2023-07-08T03:06:31;100121.06;;;14.80;100.00
61757;BME280;57225;61.460;24.060;2023-07-08T03:09:17;100128.56;;;14.86;100.00
61757;BME280;57225;61.460;24.060;2023-07-08T03:12:01;100129.56;;;14.76;100.00
61757;BME280;57225;61.460;24.060;2023-07-08T03:14:45;100120.50;;;14.69;100.00
61757;BME280;57225;61.460;24.060;2023-07-08T03:17:30;100109.06;;;14.60;100.00
61757;BME280;57225;61.460;24.060;2023-07-08T03:20:14;100127.97;;;14.75;100.00
61757;BME280;57225;61.460;24.060;2023-07-08T03:22:59;100108.19;;;14.43;100.00
61757;BME280;57225;61.460;24.060;2023-07-08T03:25:43;100116.84;;;14.52;100.00
61757;BME280;57225;61.460;24.060;2023-07-08T03:28:27;100115.31;;;14.67;100.00
61757;BME280;57225;61.460;24.060;2023-07-08T03:31:12;100115.91;;;14.78;100.00
61757;BME280;57225;61.460;24.060;2023-07-08T03:33:57;100122.38;;;14.75;100.00
61757;BME280;57225;61.460;24.060;2023-07-08T03:36:51;100130.50;;;14.89;100.00
61757;BME280;57225;61.460;24.060;2023-07-08T03:39:36;100130.22;;;15.04;100.00
61757;BME280;57225;61.460;24.060;2023-07-08T03:42:20;100126.78;;;15.32;100.00
61757;BME280;57225;61.460;24.060;2023-07-08T03:45:05;100105.59;;;15.47;100.00
61757;BME280;57225;61.460;24.060;2023-07-08T03:47:50;100118.44;;;15.64;100.00
61757;BME280;57225;61.460;24.060;2023-07-08T03:50:34;100134.44;;;15.84;100.00
61757;BME280;57225;61.460;24.060;2023-07-08T03:53:34;100141.81;;;16.10;100.00
61757;BME280;57225;61.460;24.060;2023-07-08T03:56:18;100135.22;;;16.17;100.00
61757;BME280;57225;61.460;24.060;2023-07-08T03:59:03;100129.88;;;15.90;100.00
61757;BME280;57225;61.460;24.060;2023-07-08T04:01:47;100118.38;;;15.84;100.00
61757;BME280;57225;61.460;24.060;2023-07-08T04:04:32;100121.72;;;15.79;100.00
61757;BME280;57225;61.460;24.060;2023-07-08T04:07:17;100127.22;;;15.83;100.00
61757;BME280;57225;61.460;24.060;2023-07-08T04:10:02;100117.84;;;15.73;100.00
61757;BME280;57225;61.460;24.060;2023-07-08T04:12:46;100129.44;;;15.91;100.00
61757;BME280;57225;61.460;24.060;2023-07-08T04:15:31;100138.31;;;15.74;100.00
61757;BME280;57225;61.460;24.060;2023-07-08T04:18:15;100133.03;;;15.92;100.00
61757;BME280;57225;61.460;24.060;2023-07-08T04:21:00;100125.47;;;16.21;100.00
61757;BME280;57225;61.460;24.060;2023-07-08T04:23:44;100129.16;;;16.63;100.00
61757;BME280;57225;61.460;24.060;2023-07-08T04:26:29;100082.94;;;16.48;100.00
61757;BME280;57225;61.460;24.060;2023-07-08T04:29:16;100122.91;;;16.72;100.00
61757;BME280;57225;61.460;24.060;2023-07-08T04:32:01;100127.31;;;16.73;100.00
61757;BME280;57225;61.460;24.060;2023-07-08T04:34:45;100123.94;;;16.78;100.00
61757;BME280;57225;61.460;24.060;2023-07-08T04:37:29;100118.91;;;16.85;100.00
61757;BME280;57225;61.460;24.060;2023-07-08T04:40:19;100115.91;;;17.05;100.00
61757;BME280;57225;61.460;24.060;2023-07-08T04:43:09;100133.75;;;17.27;100.00
61757;BME280;57225;61.460;24.060;2023-07-08T04:45:56;100130.03;;;17.31;100.00
61757;BME280;57225;61.460;24.060;2023-07-08T04:48:41;100133.09;;;17.49;100.00
61757;BME280;57225;61.460;24.060;2023-07-08T04:51:25;100122.72;;;17.46;100.00
61757;BME280;57225;61.460;24.060;2023-07-08T04:54:10;100132.31;;;17.99;99.49
61757;BME280;57225;61.460;24.060;2023-07-08T04:56:55;100127.72;;;17.67;94.81
61757;BME280;57225;61.460;24.060;2023-07-08T04:59:39;100131.31;;;17.80;97.22
61757;BME280;57225;61.460;24.060;2023-07-08T05:02:24;100133.00;;;17.90;97.08
61757;BME280;57225;61.460;24.060;2023-07-08T05:05:08;100142.47;;;17.71;95.93
61757;BME280;57225;61.460;24.060;2023-07-08T05:07:52;100137.16;;;17.48;98.60
61757;BME280;57225;61.460;24.060;2023-07-08T05:10:37;100142.97;;;17.28;99.35
61757;BME280;57225;61.460;24.060;2023-07-08T05:13:21;100135.19;;;18.33;96.00
61757;BME280;57225;61.460;24.060;2023-07-08T05:16:06;100124.38;;;19.41;86.94
61757;BME280;57225;61.460;24.060;2023-07-08T05:18:50;100115.75;;;19.44;85.91
61757;BME280;57225;61.460;24.060;2023-07-08T05:21:34;100101.47;;;19.79;81.84
61757;BME280;57225;61.460;24.060;2023-07-08T05:24:19;100119.69;;;19.78;82.99
61757;BME280;57225;61.460;24.060;2023-07-08T05:27:04;100133.38;;;19.48;82.27
61757;BME280;57225;61.460;24.060;2023-07-08T05:29:49;100122.97;;;19.45;83.20
61757;BME280;57225;61.460;24.060;2023-07-08T05:32:34;100119.50;;;18.88;86.08
61757;BME280;57225;61.460;24.060;2023-07-08T05:35:18;100104.34;;;18.39;86.79
61757;BME280;57225;61.460;24.060;2023-07-08T05:38:09;100124.84;;;18.52;86.93
61757;BME280;57225;61.460;24.060;2023-07-08T05:40:56;100125.28;;;18.16;91.00
61757;BME280;57225;61.460;24.060;2023-07-08T05:43:40;100123.84;;;18.80;90.02
61757;BME280;57225;61.460;24.060;2023-07-08T05:46:25;100124.75;;;19.52;87.49
61757;BME280;57225;61.460;24.060;2023-07-08T05:49:09;100131.97;;;19.84;84.59
61757;BME280;57225;61.460;24.060;2023-07-08T05:51:54;100119.09;;;19.21;83.87
61757;BME280;57225;61.460;24.060;2023-07-08T05:54:39;100134.03;;;18.31;90.56
61757;BME280;57225;61.460;24.060;2023-07-08T05:57:24;100122.38;;;18.07;92.75
61757;BME280;57225;61.460;24.060;2023-07-08T06:00:09;100133.25;;;18.30;93.13
61757;BME280;57225;61.460;24.060;2023-07-08T06:02:54;100136.56;;;18.03;92.28
61757;BME280;57225;61.460;24.060;2023-07-08T06:05:39;100128.84;;;17.82;95.23
61757;BME280;57225;61.460;24.060;2023-07-08T06:08:23;100143.47;;;17.64;95.41
61757;BME280;57225;61.460;24.060;2023-07-08T06:11:08;100153.44;;;17.69;98.18
61757;BME280;57225;61.460;24.060;2023-07-08T06:13:52;100153.16;;;17.51;97.89
61757;BME280;57225;61.460;24.060;2023-07-08T06:16:37;100165.81;;;16.76;100.00
61757;BME280;57225;61.460;24.060;2023-07-08T06:19:22;100157.13;;;16.70;100.00
61757;BME280;57225;61.460;24.060;2023-07-08T06:22:06;100164.25;;;16.75;100.00
61757;BME280;57225;61.460;24.060;2023-07-08T06:25:18;100162.00;;;16.82;100.00
61757;BME280;57225;61.460;24.060;2023-07-08T06:28:03;100149.91;;;16.98;100.00
61757;BME280;57225;61.460;24.060;2023-07-08T06:30:48;100160.69;;;16.87;100.00
61757;BME280;57225;61.460;24.060;2023-07-08T06:33:33;100164.38;;;17.13;100.00
61757;BME280;57225;61.460;24.060;2023-07-08T06:36:18;100160.88;;;17.21;100.00
61757;BME280;57225;61.460;24.060;2023-07-08T06:39:03;100163.38;;;17.19;100.00
61757;BME280;57225;61.460;24.060;2023-07-08T06:41:50;100156.97;;;17.32;100.00
61757;BME280;57225;61.460;24.060;2023-07-08T06:44:35;100144.88;;;17.18;100.00
61757;BME280;57225;61.460;24.060;2023-07-08T06:47:21;100150.50;;;16.77;100.00
61757;BME280;57225;61.460;24.060;2023-07-08T06:50:06;100153.91;;;16.84;100.00
61757;BME280;57225;61.460;24.060;2023-07-08T06:53:09;100154.28;;;16.86;100.00
61757;BME280;57225;61.460;24.060;2023-07-08T06:55:53;100143.81;;;16.87;100.00
61757;BME280;57225;61.460;24.060;2023-07-08T06:58:38;100153.63;;;17.08;100.00
61757;BME280;57225;61.460;24.060;2023-07-08T07:01:22;100160.44;;;17.23;100.00
61757;BME280;57225;61.460;24.060;2023-07-08T07:04:06;100155.75;;;16.91;100.00
61757;BME280;57225;61.460;24.060;2023-07-08T07:06:52;100167.00;;;16.91;100.00
61757;BME280;57225;61.460;24.060;2023-07-08T07:09:37;100166.19;;;17.19;100.00
61757;BME280;57225;61.460;24.060;2023-07-08T07:12:24;100163.19;;;17.52;100.00
61757;BME280;57225;61.460;24.060;2023-07-08T07:15:09;100146.38;;;17.36;100.00
61757;BME280;57225;61.460;24.060;2023-07-08T07:17:53;100172.53;;;17.36;100.00
61757;BME280;57225;61.460;24.060;2023-07-08T07:20:48;100175.44;;;17.33;100.00
61757;BME280;57225;61.460;24.060;2023-07-08T07:23:32;100167.91;;;17.29;100.00
61757;BME280;57225;61.460;24.060;2023-07-08T07:26:17;100170.34;;;17.15;100.00
61757;BME280;57225;61.460;24.060;2023-07-08T07:29:01;100173.63;;;16.84;100.00
61757;BME280;57225;61.460;24.060;2023-07-08T07:31:47;100175.00;;;16.64;100.00
61757;BME280;57225;61.460;24.060;2023-07-08T07:34:31;100176.56;;;16.65;100.00
61757;BME280;57225;61.460;24.060;2023-07-08T07:37:18;100176.81;;;16.70;100.00
61757;BME280;57225;61.460;24.060;2023-07-08T07:40:04;100169.81;;;16.46;100.00
61757;BME280;57225;61.460;24.060;2023-07-08T07:42:49;100178.94;;;16.66;100.00
61757;BME280;57225;61.460;24.060;2023-07-08T07:45:34;100163.53;;;16.71;100.00
61757;BME280;57225;61.460;24.060;2023-07-08T07:48:20;100173.88;;;16.90;100.00
61757;BME280;57225;61.460;24.060;2023-07-08T07:51:05;100173.03;;;16.77;100.00
61757;BME280;57225;61.460;24.060;2023-07-08T07:53:51;100171.28;;;16.96;100.00
61757;BME280;57225;61.460;24.060;2023-07-08T07:56:36;100163.72;;;16.64;100.00
61757;BME280;57225;61.460;24.060;2023-07-08T07:59:21;100168.16;;;16.48;100.00
61757;BME280;57225;61.460;24.060;2023-07-08T08:02:05;100156.53;;;16.63;100.00
61757;BME280;57225;61.460;24.060;2023-07-08T08:04:49;100179.88;;;16.76;100.00
61757;BME280;57225;61.460;24.060;2023-07-08T08:07:34;100176.50;;;16.68;100.00
61757;BME280;57225;61.460;24.060;2023-07-08T08:10:20;100171.75;;;16.65;100.00
61757;BME280;57225;61.460;24.060;2023-07-08T08:13:05;100177.59;;;16.87;100.00
61757;BME280;57225;61.460;24.060;2023-07-08T08:15:56;100175.56;;;16.87;100.00
61757;BME280;57225;61.460;24.060;2023-07-08T08:18:41;100176.16;;;17.08;100.00
61757;BME280;57225;61.460;24.060;2023-07-08T08:21:25;100179.25;;;16.84;100.00
61757;BME280;57225;61.460;24.060;2023-07-08T08:24:10;100184.09;;;16.84;100.00
61757;BME280;57225;61.460;24.060;2023-07-08T08:26:54;100169.81;;;16.91;100.00
61757;BME280;57225;61.460;24.060;2023-07-08T08:29:39;100186.59;;;16.95;100.00
61757;BME280;57225;61.460;24.060;2023-07-08T08:32:23;100187.19;;;17.02;100.00
61757;BME280;57225;61.460;24.060;2023-07-08T08:35:08;100191.00;;;17.24;100.00
61757;BME280;57225;61.460;24.060;2023-07-08T08:37:52;100189.44;;;17.36;100.00
61757;BME280;57225;61.460;24.060;2023-07-08T08:40:40;100186.59;;;17.23;100.00
61757;BME280;57225;61.460;24.060;2023-07-08T08:43:36;100185.28;;;17.53;100.00
61757;BME280;57225;61.460;24.060;2023-07-08T08:49:28;100182.19;;;18.02;100.00
61757;BME280;57225;61.460;24.060;2023-07-08T08:52:15;100180.25;;;18.12;100.00
61757;BME280;57225;61.460;24.060;2023-07-08T08:54:59;100189.50;;;17.87;100.00
61757;BME280;57225;61.460;24.060;2023-07-08T09:01:16;100188.44;;;17.43;100.00
61757;BME280;57225;61.460;24.060;2023-07-08T09:04:06;100179.84;;;17.34;100.00
61757;BME280;57225;61.460;24.060;2023-07-08T09:06:59;100193.66;;;17.15;100.00
61757;BME280;57225;61.460;24.060;2023-07-08T09:10:02;100186.56;;;17.11;100.00
61757;BME280;57225;61.460;24.060;2023-07-08T09:12:48;100183.22;;;17.28;100.00
61757;BME280;57225;61.460;24.060;2023-07-08T09:15:36;100184.28;;;17.60;100.00
61757;BME280;57225;61.460;24.060;2023-07-08T09:18:29;100182.50;;;17.66;100.00
61757;BME280;57225;61.460;24.060;2023-07-08T09:21:20;100177.09;;;17.72;100.00
61757;BME280;57225;61.460;24.060;2023-07-08T09:24:15;100174.28;;;17.72;100.00
61757;BME280;57225;61.460;24.060;2023-07-08T09:27:01;100173.03;;;17.85;100.00
61757;BME280;57225;61.460;24.060;2023-07-08T09:29:46;100179.03;;;17.75;99.47
61757;BME280;57225;61.460;24.060;2023-07-08T09:32:31;100180.47;;;17.92;99.40
61757;BME280;57225;61.460;24.060;2023-07-08T09:35:27;100181.47;;;18.11;97.36
61757;BME280;57225;61.460;24.060;2023-07-08T09:38:18;100175.97;;;18.54;93.19
61757;BME280;57225;61.460;24.060;2023-07-08T09:41:03;100162.19;;;18.69;93.44
61757;BME280;57225;61.460;24.060;2023-07-08T09:43:47;100173.03;;;19.66;91.88
61757;BME280;57225;61.460;24.060;2023-07-08T09:46:36;100182.28;;;19.36;86.21
61757;BME280;57225;61.460;24.060;2023-07-08T09:49:28;100186.00;;;19.77;86.19
61757;BME280;57225;61.460;24.060;2023-07-08T09:52:15;100167.97;;;19.92;83.44
61757;BME280;57225;61.460;24.060;2023-07-08T09:55:00;100172.38;;;19.53;84.60
61757;BME280;57225;61.460;24.060;2023-07-08T09:57:47;100171.78;;;19.15;84.02
61757;BME280;57225;61.460;24.060;2023-07-08T10:00:38;100170.66;;;19.96;87.42
61757;BME280;57225;61.460;24.060;2023-07-08T10:03:32;100166.94;;;20.17;85.66
61757;BME280;57225;61.460;24.060;2023-07-08T10:06:29;100181.38;;;20.01;82.57
61757;BME280;57225;61.460;24.060;2023-07-08T10:09:20;100168.34;;;19.63;80.34
61757;BME280;57225;61.460;24.060;2023-07-08T10:12:06;100174.84;;;19.29;84.31
61757;BME280;57225;61.460;24.060;2023-07-08T10:15:00;100184.59;;;19.81;81.85
61757;BME280;57225;61.460;24.060;2023-07-08T10:17:47;100188.72;;;19.98;79.95
61757;BME280;57225;61.460;24.060;2023-07-08T10:26:50;100189.59;;;20.17;81.90
61757;BME280;57225;61.460;24.060;2023-07-08T10:29:52;100192.06;;;19.66;78.28
61757;BME280;57225;61.460;24.060;2023-07-08T10:35:55;100187.38;;;19.72;80.80
61757;BME280;57225;61.460;24.060;2023-07-08T10:45:23;100182.16;;;20.60;77.12
61757;BME280;57225;61.460;24.060;2023-07-08T10:48:34;100188.78;;;20.75;73.10
61757;BME280;57225;61.460;24.060;2023-07-08T10:51:34;100183.88;;;20.94;73.82
61757;BME280;57225;61.460;24.060;2023-07-08T10:54:59;100177.53;;;21.44;71.90
61757;BME280;57225;61.460;24.060;2023-07-08T10:57:55;100167.69;;;21.21;70.67
61757;BME280;57225;61.460;24.060;2023-07-08T11:04:20;100173.16;;;19.85;75.23
61757;BME280;57225;61.460;24.060;2023-07-08T11:07:32;100193.69;;;19.76;79.60
61757;BME280;57225;61.460;24.060;2023-07-08T11:10:23;100192.06;;;19.44;75.98
61757;BME280;57225;61.460;24.060;2023-07-08T11:13:20;100203.84;;;19.64;77.59
61757;BME280;57225;61.460;24.060;2023-07-08T11:16:19;100195.69;;;20.06;78.90
61757;BME280;57225;61.460;24.060;2023-07-08T11:19:36;100186.53;;;20.33;73.09
61757;BME280;57225;61.460;24.060;2023-07-08T11:22:23;100191.91;;;21.13;72.11
61757;BME280;57225;61.460;24.060;2023-07-08T11:25:24;100190.38;;;21.31;72.55
61757;BME280;57225;61.460;24.060;2023-07-08T11:28:13;100188.09;;;21.62;68.08
61757;BME280;57225;61.460;24.060;2023-07-08T11:31:01;100195.28;;;21.81;67.71
61757;BME280;57225;61.460;24.060;2023-07-08T11:33:46;100184.22;;;22.73;65.81
61757;BME280;57225;61.460;24.060;2023-07-08T11:36:32;100188.53;;;23.07;63.35
61757;BME280;57225;61.460;24.060;2023-07-08T11:39:39;100194.97;;;22.69;61.86
61757;BME280;57225;61.460;24.060;2023-07-08T11:42:42;100184.91;;;23.36;62.08
61757;BME280;57225;61.460;24.060;2023-07-08T11:45:32;100173.38;;;23.69;61.72
61757;BME280;57225;61.460;24.060;2023-07-08T11:48:21;100178.19;;;24.27;62.90
61757;BME280;57225;61.460;24.060;2023-07-08T11:51:06;100178.09;;;24.41;58.78
61757;BME280;57225;61.460;24.060;2023-07-08T11:57:06;100178.38;;;24.23;57.17
61757;BME280;57225;61.460;24.060;2023-07-08T12:02:58;100184.31;;;23.90;58.67
61757;BME280;57225;61.460;24.060;2023-07-08T12:05:48;100181.22;;;22.67;58.55
61757;BME280;57225;61.460;24.060;2023-07-08T12:08:41;100172.94;;;21.65;63.90
61757;BME280;57225;61.460;24.060;2023-07-08T12:11:34;100182.28;;;21.47;66.19
61757;BME280;57225;61.460;24.060;2023-07-08T12:14:18;100171.78;;;21.20;65.69
61757;BME280;57225;61.460;24.060;2023-07-08T12:17:08;100175.69;;;21.14;67.22
61757;BME280;57225;61.460;24.060;2023-07-08T12:19:56;100182.22;;;21.65;68.50
61757;BME280;57225;61.460;24.060;2023-07-08T12:22:42;100186.13;;;21.77;65.73
61757;BME280;57225;61.460;24.060;2023-07-08T12:25:33;100180.69;;;21.46;64.58
61757;BME280;57225;61.460;24.060;2023-07-08T12:28:21;100189.88;;;21.05;66.53
61757;BME280;57225;61.460;24.060;2023-07-08T12:31:19;100184.19;;;20.50;70.28
61757;BME280;57225;61.460;24.060;2023-07-08T12:34:04;100179.31;;;20.41;73.85
61757;BME280;57225;61.460;24.060;2023-07-08T12:36:54;100186.44;;;20.15;74.03
61757;BME280;57225;61.460;24.060;2023-07-08T12:39:39;100179.84;;;20.18;74.18
61757;BME280;57225;61.460;24.060;2023-07-08T12:42:24;100181.53;;;20.65;73.57
61757;BME280;57225;61.460;24.060;2023-07-08T12:45:17;100176.97;;;21.22;72.61
61757;BME280;57225;61.460;24.060;2023-07-08T12:48:02;100190.84;;;22.22;69.06
61757;BME280;57225;61.460;24.060;2023-07-08T12:50:47;100184.25;;;22.40;67.50
61757;BME280;57225;61.460;24.060;2023-07-08T12:53:35;100196.41;;;22.40;65.82
61757;BME280;57225;61.460;24.060;2023-07-08T12:56:21;100191.91;;;22.81;66.23
61757;BME280;57225;61.460;24.060;2023-07-08T12:59:07;100196.31;;;22.82;61.67
61757;BME280;57225;61.460;24.060;2023-07-08T13:01:52;100200.06;;;22.89;59.97
61757;BME280;57225;61.460;24.060;2023-07-08T13:04:38;100199.47;;;22.28;62.07
61757;BME280;57225;61.460;24.060;2023-07-08T13:07:33;100212.38;;;22.05;62.05
61757;BME280;57225;61.460;24.060;2023-07-08T13:10:20;100212.97;;;21.67;63.90
61757;BME280;57225;61.460;24.060;2023-07-08T13:13:08;100204.22;;;21.29;66.93
61757;BME280;57225;61.460;24.060;2023-07-08T13:15:56;100196.66;;;20.80;68.62
61757;BME280;57225;61.460;24.060;2023-07-08T13:18:42;100180.88;;;20.52;70.29
61757;BME280;57225;61.460;24.060;2023-07-08T13:21:27;100216.13;;;20.01;76.15
61757;BME280;57225;61.460;24.060;2023-07-08T13:24:12;100218.50;;;19.28;79.41
61757;BME280;57225;61.460;24.060;2023-07-08T13:26:56;100226.56;;;18.48;84.93
61757;BME280;57225;61.460;24.060;2023-07-08T13:29:41;100228.19;;;17.86;88.21
61757;BME280;57225;61.460;24.060;2023-07-08T13:32:31;100224.16;;;17.46;92.84
61757;BME280;57225;61.460;24.060;2023-07-08T13:35:24;100206.78;;;16.93;96.67
61757;BME280;57225;61.460;24.060;2023-07-08T13:38:20;100210.84;;;16.76;100.00
61757;BME280;57225;61.460;24.060;2023-07-08T13:41:07;100215.34;;;16.57;100.00
61757;BME280;57225;61.460;24.060;2023-07-08T13:43:53;100218.44;;;16.30;100.00
61757;BME280;57225;61.460;24.060;2023-07-08T13:46:58;100223.97;;;16.01;100.00
61757;BME280;57225;61.460;24.060;2023-07-08T13:49:47;100225.81;;;15.92;100.00
61757;BME280;57225;61.460;24.060;2023-07-08T13:52:33;100218.66;;;15.71;100.00
61757;BME280;57225;61.460;24.060;2023-07-08T13:55:18;100246.25;;;15.56;100.00
61757;BME280;57225;61.460;24.060;2023-07-08T13:58:05;100241.97;;;15.68;100.00
61757;BME280;57225;61.460;24.060;2023-07-08T14:00:55;100234.19;;;15.76;100.00
61757;BME280;57225;61.460;24.060;2023-07-08T14:03:39;100238.81;;;16.02;100.00
61757;BME280;57225;61.460;24.060;2023-07-08T14:06:27;100238.47;;;16.32;100.00
61757;BME280;57225;61.460;24.060;2023-07-08T14:09:20;100230.31;;;16.54;100.00
61757;BME280;57225;61.460;24.060;2023-07-08T14:12:05;100231.59;;;16.82;100.00
61757;BME280;57225;61.460;24.060;2023-07-08T14:14:50;100231.03;;;17.03;100.00
61757;BME280;57225;61.460;24.060;2023-07-08T14:17:36;100228.59;;;17.18;100.00
61757;BME280;57225;61.460;24.060;2023-07-08T14:20:23;100228.91;;;17.49;100.00
61757;BME280;57225;61.460;24.060;2023-07-08T14:23:11;100215.06;;;17.54;99.76
61757;BME280;57225;61.460;24.060;2023-07-08T14:25:57;100232.16;;;18.01;96.85
61757;BME280;57225;61.460;24.060;2023-07-08T14:28:41;100231.13;;;18.33;97.64
61757;BME280;57225;61.460;24.060;2023-07-08T14:31:25;100232.13;;;18.52;93.09
61757;BME280;57225;61.460;24.060;2023-07-08T14:34:24;100227.75;;;18.26;92.41
61757;BME280;57225;61.460;24.060;2023-07-08T14:37:14;100231.47;;;17.97;93.21
61757;BME280;57225;61.460;24.060;2023-07-08T14:39:59;100229.22;;;17.92;95.49
61757;BME280;57225;61.460;24.060;2023-07-08T14:42:44;100226.25;;;18.08;99.58
61757;BME280;57225;61.460;24.060;2023-07-08T14:45:30;100216.91;;;18.24;94.73
61757;BME280;57225;61.460;24.060;2023-07-08T14:48:16;100227.84;;;18.35;95.70
61757;BME280;57225;61.460;24.060;2023-07-08T14:51:00;100217.44;;;18.57;97.10
61757;BME280;57225;61.460;24.060;2023-07-08T14:53:44;100209.75;;;18.92;97.81
61757;BME280;57225;61.460;24.060;2023-07-08T14:56:29;100212.25;;;18.90;88.70